Montague, CA (96064)

10:43 PM PST on December 03, 2016 (GMT -0800)
Montague Road | | Change Station

Elev 2497 ft 41.73 °N, 122.56 °W | Updated 2 minutes ago

Clear
Clear
29.5 °F
Feels Like 30 °F
N
0.0
Wind Variable Wind from SW

Today
High -- | Low -- °F
--% Chance of Precip.
Yesterday
High -- | Low -- °F
Precip. -- in
Pressure 30.39 in
Visibility 10.0 miles
Clouds Clear
Windchill 30 °F
Dew Point 29 °F
Humidity 99%
Rainfall 0.00 in
Snow Depth Not available.
7:20 AM 4:39 PM
Waxing Crescent, 20% visible
METAR KSIY 040553Z AUTO 04003KT 10SM CLR M01/M02 A3031 RMK AO2 SLP291 T10061017 10094 21017 $
Pressure 30.39 in
Visibility 10.0 miles
Clouds Clear
Windchill 30 °F
Dew Point 29 °F
Humidity 99%
Rainfall 0.00 in
Snow Depth Not available.
7:20 AM 4:39 PM
Waxing Crescent, 20% visible
METAR KSIY 040553Z AUTO 04003KT 10SM CLR M01/M02 A3031 RMK AO2 SLP291 T10061017 10094 21017 $

10-Day Weather Forecast

Almanac

Astronomy

Dec. 03, 2016 Rise Set
Actual Time
Civil Twilight
Nautical Twilight
Astronomical Twilight
Moon
Length of Visible Light
Length of Day
Tomorrow will be .
, % of the Moon is Illuminated

Today's Extremes

State Highs State Lows

Community

WunderPhotos

Upload Photos

1,955,588 photos uploaded!

WunderBlog® & News

Nearby

Air Quality

  Air Quality AQ Index Pollutant
Not available.

Snow Depth

Station Depth Elevation

Earthquake Activity

City Distance Mag. Time & Date
Minimum magnitude displayed is 2.5.

Coastal Water Temperatures

Place Temperature

Stations

Nearby Weather Stations

Station Location Temp. Windchill Dew Point Humidity Wind Precip. Elev Updated Type
                   

Watches & Warnings

There are currently no watches in effect.